Time;durP1;ratioP1;P1;durP2;ratioP2;P2;SDS_P1;SDS_P2;PMS_P1;PMS_P2;Temp;Humidity;BMP_temperature;BMP_pressure;BME280_temperature;BME280_humidity;BME280_pressure;Samples;Min_cycle;Max_cycle;Signal;HPM_P1;HPM_P2
2023/06/24 00:02:04;;;;;;;8.77;7.88;;;;;;;18.74;100.00;102285.94;5231082;28;20132;-67
2023/06/24 00:04:36;;;;;;;12.23;8.52;;;;;;;18.72;100.00;102283.34;5228391;28;20025;-66
2023/06/24 00:07:08;;;;;;;11.60;8.57;;;;;;;18.68;100.00;102284.63;5232203;28;20406;-67
2023/06/24 00:09:39;;;;;;;10.38;8.75;;;;;;;18.67;100.00;102284.75;5225251;28;20487;-66
2023/06/24 00:12:19;;;;;;;9.63;8.20;;;;;;;18.68;100.00;102289.16;5225667;28;20544;-66
2023/06/24 00:14:50;;;;;;;11.32;8.57;;;;;;;18.55;100.00;102282.13;5221492;28;20633;-66
2023/06/24 00:17:22;;;;;;;11.23;9.77;;;;;;;18.49;100.00;102285.38;5220882;28;20035;-66
2023/06/24 00:19:54;;;;;;;11.27;9.45;;;;;;;18.35;100.00;102291.13;5225892;28;20025;-67
2023/06/24 00:22:26;;;;;;;10.35;9.05;;;;;;;18.46;100.00;102293.75;5231314;28;20080;-66
2023/06/24 00:24:57;;;;;;;11.57;9.05;;;;;;;18.41;100.00;102304.13;5227897;28;20022;-66
2023/06/24 00:27:29;;;;;;;10.02;8.90;;;;;;;18.53;100.00;102297.63;5227706;28;20375;-66
2023/06/24 00:30:00;;;;;;;10.80;9.15;;;;;;;18.35;100.00;102300.09;5227168;28;20044;-67
2023/06/24 00:32:31;;;;;;;12.13;9.60;;;;;;;18.29;100.00;102305.16;5228026;28;20041;-67
2023/06/24 00:35:03;;;;;;;11.38;8.95;;;;;;;18.26;100.00;102302.75;5227505;28;20037;-66
2023/06/24 00:37:35;;;;;;;12.27;9.25;;;;;;;18.47;100.00;102311.69;5232781;28;20021;-66
2023/06/24 00:40:11;;;;;;;12.57;9.77;;;;;;;18.28;100.00;102309.72;5234490;28;20037;-67
2023/06/24 00:42:46;;;;;;;10.82;9.35;;;;;;;18.29;100.00;102310.56;5230162;28;20044;-66
2023/06/24 00:45:17;;;;;;;12.25;10.35;;;;;;;18.36;100.00;102301.78;5231224;28;20100;-67
2023/06/24 00:47:49;;;;;;;12.13;10.00;;;;;;;18.26;100.00;102300.88;5229625;28;20165;-66
2023/06/24 00:50:20;;;;;;;11.02;9.63;;;;;;;18.23;100.00;102309.25;5233939;28;20153;-67
2023/06/24 00:52:52;;;;;;;13.27;9.93;;;;;;;18.23;100.00;102315.50;5227114;28;20072;-67
2023/06/24 00:55:24;;;;;;;10.70;8.93;;;;;;;18.20;100.00;102313.09;5223375;28;20028;-66
2023/06/24 00:57:55;;;;;;;12.75;9.90;;;;;;;18.19;100.00;102314.06;5224522;28;20024;-66
2023/06/24 01:00:27;;;;;;;13.90;9.85;;;;;;;18.13;100.00;102309.19;5225854;28;20529;-66
2023/06/24 01:02:58;;;;;;;13.35;9.55;;;;;;;18.06;100.00;102305.28;5226426;28;20476;-66
2023/06/24 01:05:35;;;;;;;10.63;9.52;;;;;;;18.01;100.00;102302.13;5225932;28;20091;-66
2023/06/24 01:08:06;;;;;;;10.95;9.25;;;;;;;18.08;100.00;102302.47;5222031;28;20510;-67
2023/06/24 01:10:38;;;;;;;11.48;9.60;;;;;;;18.01;100.00;102297.59;5220549;28;20076;-67
2023/06/24 01:13:09;;;;;;;10.32;8.63;;;;;;;17.94;100.00;102296.38;5220731;28;20538;-67
2023/06/24 01:15:40;;;;;;;10.02;8.70;;;;;;;17.87;100.00;102291.63;5218874;28;20048;-66
2023/06/24 01:18:34;;;;;;;12.90;9.35;;;;;;;17.99;100.00;102299.56;5225329;28;20029;-66
2023/06/24 01:21:12;;;;;;;9.90;8.50;;;;;;;17.77;100.00;102280.72;5222833;28;20083;-67
2023/06/24 01:24:08;;;;;;;13.02;9.93;;;;;;;17.77;100.00;102289.69;5217647;28;20028;-66
2023/06/24 01:26:59;;;;;;;11.32;9.00;;;;;;;17.70;100.00;102284.91;5230631;28;20040;-66
2023/06/24 01:29:37;;;;;;;13.27;9.75;;;;;;;17.63;100.00;102287.28;5221190;28;20310;-67
2023/06/24 01:32:16;;;;;;;11.00;9.60;;;;;;;17.70;100.00;102285.81;5225756;28;20040;-66
2023/06/24 01:35:00;;;;;;;10.25;9.20;;;;;;;17.68;100.00;102282.38;5227003;28;20118;-67
2023/06/24 01:37:41;;;;;;;;;;;;;;;17.93;100.00;102277.59;5223247;28;20021;-67
2023/06/24 01:40:26;;;;;;;10.13;7.75;;;;;;;17.70;100.00;102283.09;5227080;28;19924;-67
2023/06/24 01:42:58;;;;;;;;;;;;;;;17.87;100.00;102275.44;5229594;28;20031;-67
2023/06/24 01:45:36;;;;;;;10.48;8.43;;;;;;;17.55;100.00;102282.53;5222990;28;19917;-66
2023/06/24 01:48:14;;;;;;;11.10;8.52;;;;;;;17.37;100.00;102279.53;5224139;28;20096;-67
2023/06/24 01:50:53;;;;;;;11.68;8.60;;;;;;;17.41;100.00;102275.59;5226017;28;20171;-67
2023/06/24 01:53:27;;;;;;;9.02;7.72;;;;;;;17.38;100.00;102277.69;5224706;28;20025;-67
2023/06/24 01:56:04;;;;;;;12.50;8.52;;;;;;;17.37;100.00;102274.13;5229741;28;20422;-67
2023/06/24 01:58:38;;;;;;;10.20;8.02;;;;;;;17.32;100.00;102272.81;5231344;28;20025;-67
2023/06/24 02:01:10;;;;;;;11.10;8.52;;;;;;;17.38;100.00;102272.28;5225637;28;20162;-67
2023/06/24 02:03:43;;;;;;;10.88;7.90;;;;;;;17.25;100.00;102275.13;5231115;28;20060;-66
2023/06/24 02:06:17;;;;;;;9.98;8.15;;;;;;;17.18;100.00;102271.22;5229816;28;20164;-67
2023/06/24 02:08:51;;;;;;;10.13;8.27;;;;;;;17.29;100.00;102268.50;5230977;28;20028;-67
2023/06/24 02:11:24;;;;;;;10.00;8.35;;;;;;;17.16;100.00;102267.78;5228743;28;20021;-67
2023/06/24 02:13:59;;;;;;;9.60;8.27;;;;;;;17.03;100.00;102266.09;5233053;28;20033;-67
2023/06/24 02:16:32;;;;;;;10.00;8.07;;;;;;;17.11;100.00;102262.78;5222396;28;20119;-67
2023/06/24 02:19:06;;;;;;;10.25;8.50;;;;;;;17.13;100.00;102262.66;5227114;28;20037;-66
2023/06/24 02:21:40;;;;;;;10.23;8.18;;;;;;;17.23;100.00;102266.31;5228701;28;20033;-66
2023/06/24 02:24:12;;;;;;;10.13;8.02;;;;;;;17.17;100.00;102258.72;5229661;28;20037;-66
2023/06/24 02:26:44;;;;;;;11.52;8.43;;;;;;;17.14;100.00;102265.22;5240456;28;20052;-66
2023/06/24 02:29:17;;;;;;;11.00;8.55;;;;;;;17.00;100.00;102274.44;5228646;28;20037;-66
2023/06/24 02:31:49;;;;;;;10.13;8.05;;;;;;;17.13;100.00;102265.34;5229242;28;20034;-66
2023/06/24 02:34:22;;;;;;;9.95;8.43;;;;;;;17.12;100.00;102269.03;5229868;28;20394;-67
2023/06/24 02:36:54;;;;;;;12.10;8.75;;;;;;;17.12;100.00;102274.41;5227278;28;20079;-67
2023/06/24 02:39:25;;;;;;;9.57;8.52;;;;;;;17.02;100.00;102274.31;5226879;28;20025;-67
2023/06/24 02:41:56;;;;;;;13.25;9.25;;;;;;;17.08;100.00;102267.56;5230365;28;20086;-65
2023/06/24 02:44:28;;;;;;;11.80;8.93;;;;;;;17.02;100.00;102269.78;5228306;28;20589;-66
2023/06/24 02:47:00;;;;;;;13.18;9.60;;;;;;;17.01;100.00;102268.06;5228964;28;20063;-67
2023/06/24 02:49:32;;;;;;;12.98;9.63;;;;;;;17.00;100.00;102273.59;5229863;28;20975;-67
2023/06/24 02:52:04;;;;;;;12.43;9.65;;;;;;;17.00;100.00;102260.09;5228962;28;20364;-67
2023/06/24 02:54:38;;;;;;;12.07;9.43;;;;;;;16.96;100.00;102272.13;5224874;28;21465;-66
2023/06/24 02:57:10;;;;;;;10.70;9.18;;;;;;;16.98;100.00;102267.47;5229950;28;20479;-67
2023/06/24 02:59:41;;;;;;;11.85;9.75;;;;;;;16.98;100.00;102284.50;5231025;28;20107;-66
2023/06/24 03:02:15;;;;;;;11.40;9.27;;;;;;;16.94;100.00;102282.19;5230372;28;20037;-67
2023/06/24 03:04:48;;;;;;;11.98;9.60;;;;;;;16.93;100.00;102281.31;5224625;28;20029;-67
2023/06/24 03:07:20;;;;;;;12.67;10.53;;;;;;;16.83;100.00;102286.56;5229893;28;20052;-66
2023/06/24 03:09:52;;;;;;;11.55;9.48;;;;;;;16.99;100.00;102298.81;5233236;28;20929;-66
2023/06/24 03:12:24;;;;;;;10.80;9.13;;;;;;;16.96;100.00;102299.94;5226587;28;20391;-67
2023/06/24 03:14:55;;;;;;;11.88;9.80;;;;;;;16.72;100.00;102291.97;5225542;28;20072;-67
2023/06/24 03:17:27;;;;;;;13.18;10.30;;;;;;;16.64;100.00;102292.56;5230390;28;20166;-66
2023/06/24 03:19:58;;;;;;;12.40;10.60;;;;;;;16.69;100.00;102289.50;5222476;28;20029;-67
2023/06/24 03:22:30;;;;;;;13.23;11.23;;;;;;;16.67;100.00;102291.47;5222111;28;20437;-67
2023/06/24 03:25:01;;;;;;;12.82;11.10;;;;;;;16.73;100.00;102292.81;5223908;28;20033;-67
2023/06/24 03:27:34;;;;;;;15.55;12.18;;;;;;;16.64;100.00;102289.00;5222795;28;20029;-67
2023/06/24 03:30:06;;;;;;;15.70;12.93;;;;;;;16.76;100.00;102282.66;5224334;28;20034;-67
2023/06/24 03:32:38;;;;;;;13.30;11.90;;;;;;;16.60;100.00;102288.38;5223679;28;20399;-67
2023/06/24 03:35:09;;;;;;;16.48;12.15;;;;;;;16.70;100.00;102287.66;5222771;28;20040;-67
2023/06/24 03:37:41;;;;;;;14.45;11.82;;;;;;;16.64;100.00;102281.78;5222783;28;20454;-67
2023/06/24 03:40:12;;;;;;;15.65;13.25;;;;;;;16.56;100.00;102280.66;5226549;28;20180;-67
2023/06/24 03:42:44;;;;;;;14.63;12.95;;;;;;;16.57;100.00;102272.47;5224044;28;20048;-66
2023/06/24 03:45:15;;;;;;;15.07;12.77;;;;;;;16.54;100.00;102274.53;5224864;28;20033;-67
2023/06/24 03:47:47;;;;;;;14.65;13.00;;;;;;;16.47;100.00;102284.94;5220163;28;20078;-66
2023/06/24 03:50:18;;;;;;;14.50;12.85;;;;;;;16.38;100.00;102288.38;5221885;28;20040;-67
2023/06/24 03:52:50;;;;;;;15.85;12.82;;;;;;;16.36;100.00;102290.34;5218285;28;20155;-67
2023/06/24 03:55:21;;;;;;;16.70;13.27;;;;;;;16.53;100.00;102295.25;5227154;28;20814;-67
2023/06/24 03:57:52;;;;;;;17.38;13.30;;;;;;;16.56;100.00;102292.28;5220285;28;20070;-66
2023/06/24 04:00:24;;;;;;;14.25;12.75;;;;;;;16.52;100.00;102292.66;5222047;28;20028;-67
2023/06/24 04:02:55;;;;;;;16.10;13.75;;;;;;;16.59;100.00;102302.00;5218333;28;20072;-67
2023/06/24 04:05:27;;;;;;;17.17;14.00;;;;;;;16.52;100.00;102300.75;5222905;28;20050;-67
2023/06/24 04:07:59;;;;;;;16.10;13.32;;;;;;;16.46;100.00;102299.41;5221292;28;20057;-67
2023/06/24 04:10:30;;;;;;;15.93;13.50;;;;;;;16.47;100.00;102298.41;5219108;28;20526;-67
2023/06/24 04:13:01;;;;;;;15.75;13.07;;;;;;;16.41;100.00;102296.19;5220494;28;20037;-67
2023/06/24 04:15:33;;;;;;;17.35;13.75;;;;;;;16.46;100.00;102291.31;5223621;28;20044;-67
2023/06/24 04:18:04;;;;;;;17.58;13.77;;;;;;;16.36;100.00;102298.41;5224295;28;20021;-67
2023/06/24 04:20:36;;;;;;;19.25;13.15;;;;;;;16.45;100.00;102290.47;5228332;28;20102;-67
2023/06/24 04:23:09;;;;;;;16.20;13.43;;;;;;;16.57;100.00;102302.09;5224565;28;20089;-67
2023/06/24 04:25:42;;;;;;;16.20;13.23;;;;;;;16.56;100.00;102303.06;5230204;28;20049;-67
2023/06/24 04:28:13;;;;;;;14.23;12.30;;;;;;;16.47;100.00;102298.41;5225550;28;20036;-67
2023/06/24 04:30:44;;;;;;;17.98;13.63;;;;;;;16.39;100.00;102300.84;5228179;28;20029;-67
2023/06/24 04:33:16;;;;;;;14.20;12.45;;;;;;;16.38;100.00;102300.00;5227497;28;20029;-68
2023/06/24 04:35:47;;;;;;;15.75;12.80;;;;;;;16.40;100.00;102302.56;5226308;28;20170;-67
2023/06/24 04:38:19;;;;;;;16.55;13.23;;;;;;;16.40;100.00;102297.19;5225214;28;20492;-67
2023/06/24 04:40:50;;;;;;;14.35;12.05;;;;;;;16.31;100.00;102289.81;5228250;28;20558;-67
2023/06/24 04:43:21;;;;;;;15.63;11.63;;;;;;;16.41;100.00;102293.50;5227746;28;20033;-67
2023/06/24 04:45:54;;;;;;;16.52;13.82;;;;;;;16.34;100.00;102293.13;5227118;28;20025;-67
2023/06/24 04:48:26;;;;;;;15.55;12.52;;;;;;;16.42;100.00;102292.53;5228337;28;20389;-67
2023/06/24 04:50:58;;;;;;;15.52;12.93;;;;;;;16.47;100.00;102301.09;5222488;28;20041;-67
2023/06/24 04:53:29;;;;;;;16.40;12.48;;;;;;;16.43;100.00;102292.44;5227895;28;20095;-67
2023/06/24 04:56:01;;;;;;;19.15;14.30;;;;;;;16.54;100.00;102305.03;5226749;28;20605;-67
2023/06/24 04:58:32;;;;;;;19.90;14.85;;;;;;;16.54;100.00;102296.94;5228323;28;20030;-67
2023/06/24 05:01:04;;;;;;;17.60;14.32;;;;;;;16.49;100.00;102298.28;5223771;28;20064;-67
2023/06/24 05:03:36;;;;;;;18.52;15.10;;;;;;;16.49;100.00;102295.59;5227991;28;20043;-67
2023/06/24 05:06:07;;;;;;;19.10;14.80;;;;;;;16.66;100.00;102298.69;5225995;28;20045;-67
2023/06/24 05:08:38;;;;;;;20.05;16.08;;;;;;;16.60;100.00;102298.31;5222300;28;20356;-67
2023/06/24 05:11:10;;;;;;;19.48;16.52;;;;;;;16.52;100.00;102290.81;5228243;28;20052;-67
2023/06/24 05:13:41;;;;;;;19.73;16.98;;;;;;;16.65;100.00;102305.03;5227683;28;20107;-67
2023/06/24 05:16:12;;;;;;;17.92;15.63;;;;;;;16.55;100.00;102298.69;5227731;28;20395;-67
2023/06/24 05:18:45;;;;;;;23.42;16.92;;;;;;;16.67;100.00;102304.94;5224673;28;20087;-67
2023/06/24 05:21:16;;;;;;;20.58;15.93;;;;;;;16.58;100.00;102294.88;5229746;28;20040;-67
2023/06/24 05:23:48;;;;;;;19.70;16.73;;;;;;;16.60;100.00;102299.16;5233669;28;20029;-67
2023/06/24 05:26:19;;;;;;;21.45;17.05;;;;;;;16.74;100.00;102302.59;5232279;28;20066;-67
2023/06/24 05:28:51;;;;;;;18.58;16.58;;;;;;;16.64;100.00;102291.69;5231204;28;20551;-67
2023/06/24 05:31:22;;;;;;;19.15;15.88;;;;;;;16.67;100.00;102295.00;5231171;28;20029;-67
2023/06/24 05:33:53;;;;;;;19.83;17.23;;;;;;;16.69;100.00;102305.66;5233601;28;20039;-67
2023/06/24 05:36:25;;;;;;;19.23;15.73;;;;;;;16.69;100.00;102300.28;5232864;28;20029;-67
2023/06/24 05:38:56;;;;;;;18.58;14.63;;;;;;;16.73;100.00;102303.59;5232739;28;20086;-67
2023/06/24 05:41:28;;;;;;;17.05;14.75;;;;;;;16.70;100.00;102304.66;5235541;28;20021;-67
2023/06/24 05:44:04;;;;;;;18.23;15.10;;;;;;;16.76;100.00;102303.31;5234406;28;20068;-67
2023/06/24 05:46:36;;;;;;;19.67;14.55;;;;;;;16.78;100.00;102301.38;5228758;28;20036;-67
2023/06/24 05:49:07;;;;;;;17.95;14.10;;;;;;;16.93;100.00;102302.91;5230948;28;20033;-67
2023/06/24 05:51:39;;;;;;;18.25;14.55;;;;;;;16.85;100.00;102310.72;5236651;28;20021;-67
2023/06/24 05:54:10;;;;;;;17.08;13.95;;;;;;;16.90;100.00;102311.22;5228040;28;20037;-67
2023/06/24 05:56:41;;;;;;;16.33;13.70;;;;;;;16.94;100.00;102301.91;5232780;28;20029;-67
2023/06/24 05:59:13;;;;;;;19.40;13.90;;;;;;;17.03;100.00;102300.31;5223784;28;20037;-68
2023/06/24 06:01:44;;;;;;;18.83;13.85;;;;;;;17.02;100.00;102301.28;5228425;28;20064;-67
2023/06/24 06:04:16;;;;;;;15.25;13.13;;;;;;;17.06;100.00;102302.75;5228850;28;20573;-67
2023/06/24 06:06:47;;;;;;;17.02;12.55;;;;;;;17.03;100.00;102301.16;5231034;28;20537;-67
2023/06/24 06:09:19;;;;;;;14.70;12.00;;;;;;;17.12;100.00;102298.69;5229516;28;20105;-67
2023/06/24 06:11:51;;;;;;;14.27;12.48;;;;;;;17.21;100.00;102300.66;5231208;28;20025;-67
2023/06/24 06:14:22;;;;;;;15.77;11.95;;;;;;;17.15;100.00;102298.47;5230199;28;20115;-67
2023/06/24 06:16:54;;;;;;;13.18;11.07;;;;;;;17.19;100.00;102302.63;5230382;28;20048;-67
2023/06/24 06:19:25;;;;;;;14.60;11.40;;;;;;;17.22;100.00;102305.91;5232702;28;20463;-67
2023/06/24 06:21:56;;;;;;;13.48;11.60;;;;;;;17.30;100.00;102301.75;5235125;28;20116;-67
2023/06/24 06:24:28;;;;;;;14.68;11.57;;;;;;;17.51;100.00;102304.50;5229406;28;20059;-67
2023/06/24 06:26:59;;;;;;;14.70;11.35;;;;;;;17.53;100.00;102302.53;5225533;28;20056;-69
2023/06/24 06:29:31;;;;;;;14.90;11.30;;;;;;;17.71;100.00;102298.28;5225503;28;20030;-67
2023/06/24 06:32:02;;;;;;;14.15;10.48;;;;;;;17.80;100.00;102304.78;5233497;28;20033;-67
2023/06/24 06:34:34;;;;;;;14.98;11.05;;;;;;;17.87;100.00;102299.72;5231957;28;20029;-67
2023/06/24 06:37:05;;;;;;;12.77;10.13;;;;;;;17.97;100.00;102298.00;5232930;28;20350;-67
2023/06/24 06:39:37;;;;;;;11.60;9.23;;;;;;;18.15;100.00;102303.66;5228260;28;20056;-67
2023/06/24 06:42:08;;;;;;;11.63;8.40;;;;;;;18.25;100.00;102309.97;5230968;28;20381;-67
2023/06/24 06:44:40;;;;;;;13.35;9.43;;;;;;;18.33;100.00;102315.59;5228513;28;20337;-67
2023/06/24 06:47:11;;;;;;;10.57;8.48;;;;;;;18.41;100.00;102310.38;5229875;28;20025;-67
2023/06/24 06:49:43;;;;;;;12.00;8.45;;;;;;;18.53;100.00;102307.59;5227880;28;20421;-68
2023/06/24 06:52:14;;;;;;;11.57;8.20;;;;;;;18.64;100.00;102310.22;5227126;28;20489;-68
2023/06/24 06:54:46;;;;;;;10.18;7.68;;;;;;;18.66;100.00;102313.66;5232548;28;20025;-68
2023/06/24 06:57:17;;;;;;;10.30;7.85;;;;;;;18.85;100.00;102318.31;5230533;28;20033;-68
2023/06/24 06:59:51;;;;;;;10.38;7.88;;;;;;;19.04;100.00;102319.38;5224448;28;20025;-69
2023/06/24 07:02:23;;;;;;;12.18;8.10;;;;;;;19.12;100.00;102322.25;5225058;28;20407;-69
2023/06/24 07:04:54;;;;;;;10.20;7.68;;;;;;;19.18;100.00;102319.84;5220513;28;20033;-70
2023/06/24 07:07:25;;;;;;;11.15;7.53;;;;;;;19.29;100.00;102323.44;5226161;28;20427;-70
2023/06/24 07:09:57;;;;;;;10.25;7.25;;;;;;;19.45;100.00;102331.03;5226431;28;20025;-69
2023/06/24 07:12:28;;;;;;;9.90;6.80;;;;;;;19.55;100.00;102326.50;5222249;28;20025;-69
2023/06/24 07:15:00;;;;;;;9.02;6.18;;;;;;;19.54;100.00;102336.47;5230115;28;20483;-69
2023/06/24 07:17:31;;;;;;;9.70;6.60;;;;;;;19.61;100.00;102333.19;5231402;28;20119;-69
2023/06/24 07:20:03;;;;;;;9.00;5.93;;;;;;;19.76;100.00;102331.81;5228530;28;20029;-69
2023/06/24 07:22:34;;;;;;;8.98;6.45;;;;;;;19.81;100.00;102320.56;5231835;28;20021;-69
2023/06/24 07:25:06;;;;;;;9.00;6.03;;;;;;;19.93;100.00;102325.69;5223641;28;20032;-69
2023/06/24 07:27:37;;;;;;;8.88;6.35;;;;;;;19.95;100.00;102323.69;5230239;28;20032;-70
2023/06/24 07:30:09;;;;;;;6.05;4.55;;;;;;;19.95;100.00;102317.44;5229707;28;20144;-69
2023/06/24 07:32:40;;;;;;;5.75;4.32;;;;;;;20.03;100.00;102319.44;5226698;28;20044;-69
2023/06/24 07:35:13;;;;;;;7.10;4.35;;;;;;;20.19;100.00;102314.25;5231973;28;20415;-69
2023/06/24 07:37:45;;;;;;;6.15;3.90;;;;;;;20.27;100.00;102316.25;5224318;28;20017;-69
2023/06/24 07:40:16;;;;;;;7.70;4.30;;;;;;;20.37;100.00;102317.94;5229399;28;20510;-70
2023/06/24 07:42:47;;;;;;;7.85;5.65;;;;;;;20.57;100.00;102326.88;5223915;28;20339;-69
2023/06/24 07:45:19;;;;;;;6.80;4.63;;;;;;;20.54;100.00;102313.63;5229140;28;20367;-69
2023/06/24 07:47:50;;;;;;;6.03;4.25;;;;;;;20.65;100.00;102317.19;5229852;28;20025;-70
2023/06/24 07:50:22;;;;;;;6.40;4.00;;;;;;;20.74;100.00;102316.31;5231361;28;20076;-69
2023/06/24 07:52:53;;;;;;;8.30;4.40;;;;;;;20.72;100.00;102312.88;5228496;28;20475;-69
2023/06/24 07:55:24;;;;;;;6.00;3.95;;;;;;;20.87;100.00;102318.69;5229453;28;20025;-70
2023/06/24 07:57:58;;;;;;;6.72;4.30;;;;;;;21.07;100.00;102314.00;5229428;28;20471;-70
2023/06/24 08:00:29;;;;;;;6.97;4.03;;;;;;;21.08;100.00;102316.59;5227329;28;20024;-69
2023/06/24 08:03:01;;;;;;;5.50;4.20;;;;;;;21.23;100.00;102313.34;5227454;28;20111;-69
2023/06/24 08:05:32;;;;;;;5.45;4.03;;;;;;;21.31;100.00;102322.47;5232104;28;20046;-69
2023/06/24 08:08:04;;;;;;;7.40;4.43;;;;;;;21.35;100.00;102317.59;5228887;28;20044;-69
2023/06/24 08:10:36;;;;;;;5.20;3.85;;;;;;;21.40;100.00;102317.09;5230282;28;20029;-70
2023/06/24 08:13:07;;;;;;;5.18;3.35;;;;;;;21.47;100.00;102308.22;5232522;28;20470;-69
2023/06/24 08:15:39;;;;;;;5.40;3.22;;;;;;;21.59;100.00;102299.88;5230119;28;20297;-69
2023/06/24 08:18:10;;;;;;;6.07;3.10;;;;;;;21.70;100.00;102305.91;5233642;28;20037;-70
2023/06/24 08:20:42;;;;;;;4.93;2.72;;;;;;;21.67;100.00;102305.38;5227414;28;20039;-69
2023/06/24 08:23:13;;;;;;;5.70;3.00;;;;;;;21.75;100.00;102305.47;5228799;28;20036;-70
2023/06/24 08:25:45;;;;;;;5.22;2.95;;;;;;;21.86;100.00;102307.06;5231991;28;20460;-70
2023/06/24 08:28:16;;;;;;;5.53;2.97;;;;;;;22.17;100.00;102303.94;5229844;28;20057;-69
2023/06/24 08:30:47;;;;;;;3.50;2.50;;;;;;;22.51;100.00;102296.75;5228322;28;20278;-69
2023/06/24 08:33:19;;;;;;;3.72;2.20;;;;;;;22.33;100.00;102300.53;5231310;28;20040;-69
2023/06/24 08:35:50;;;;;;;4.65;2.20;;;;;;;22.38;100.00;102296.31;5232423;28;20080;-69
2023/06/24 08:38:22;;;;;;;3.55;2.03;;;;;;;22.40;100.00;102302.44;5242620;28;20037;-70
2023/06/24 08:40:53;;;;;;;3.30;2.35;;;;;;;22.51;100.00;102298.59;5228702;28;20466;-70
2023/06/24 08:43:24;;;;;;;4.50;2.15;;;;;;;22.55;100.00;102296.41;5230037;28;20028;-69
2023/06/24 08:45:56;;;;;;;4.00;2.42;;;;;;;22.63;100.00;102293.75;5232905;28;20029;-69
2023/06/24 08:48:30;;;;;;;3.28;2.03;;;;;;;22.66;100.00;102293.41;5232329;28;20396;-69
2023/06/24 08:51:03;;;;;;;5.03;2.22;;;;;;;22.95;100.00;102289.47;5227395;28;20045;-69
2023/06/24 08:53:37;;;;;;;3.00;1.90;;;;;;;22.94;100.00;102296.78;5227511;28;20029;-70
2023/06/24 08:56:10;;;;;;;2.92;1.83;;;;;;;22.97;100.00;102287.44;5231718;28;20072;-70
2023/06/24 08:58:41;;;;;;;4.20;2.55;;;;;;;23.00;100.00;102292.56;5232961;28;20055;-70
2023/06/24 09:01:12;;;;;;;4.85;2.17;;;;;;;23.06;100.00;102291.94;5235614;28;20399;-70
2023/06/24 09:03:44;;;;;;;3.40;2.08;;;;;;;23.08;100.00;102301.63;5232828;28;20072;-70
2023/06/24 09:06:15;;;;;;;3.40;2.10;;;;;;;23.19;100.00;102297.75;5233712;28;20091;-70
2023/06/24 09:08:56;;;;;;;3.72;2.42;;;;;;;23.23;100.00;102306.44;5251638;28;20036;-70
2023/06/24 09:11:29;;;;;;;4.22;2.00;;;;;;;23.30;100.00;102302.06;5230175;28;20112;-69
2023/06/24 09:14:01;;;;;;;4.35;2.38;;;;;;;23.18;100.00;102290.59;5236384;28;20041;-70
2023/06/24 09:16:32;;;;;;;4.03;2.20;;;;;;;23.47;100.00;102287.44;5232554;28;20448;-70
2023/06/24 09:19:03;;;;;;;3.97;2.58;;;;;;;23.59;100.00;102282.53;5233551;28;20059;-68
2023/06/24 09:21:35;;;;;;;5.10;2.80;;;;;;;23.62;100.00;102284.06;5235926;28;20036;-68
2023/06/24 09:24:06;;;;;;;3.75;1.90;;;;;;;23.75;100.00;102284.41;5233377;28;20052;-68
2023/06/24 09:26:38;;;;;;;4.80;3.20;;;;;;;23.76;100.00;102275.22;5234531;28;20043;-68
2023/06/24 09:29:09;;;;;;;5.90;2.42;;;;;;;24.05;100.00;102272.00;5231653;28;20080;-68
2023/06/24 09:31:55;;;;;;;4.30;2.72;;;;;;;24.09;100.00;102268.94;5235612;28;20099;-68
2023/06/24 09:34:28;;;;;;;5.97;2.33;;;;;;;24.07;100.00;102259.03;5233915;28;20036;-68
2023/06/24 09:37:00;;;;;;;4.27;2.43;;;;;;;24.06;100.00;102257.31;5232270;28;20033;-68
2023/06/24 09:39:36;;;;;;;3.60;2.13;;;;;;;24.01;100.00;102253.41;5234052;28;20762;-68
2023/06/24 09:42:09;;;;;;;3.95;2.33;;;;;;;24.13;100.00;102256.66;5231030;28;20040;-68
2023/06/24 09:44:41;;;;;;;4.38;2.30;;;;;;;24.06;100.00;102253.75;5235860;28;20036;-68
2023/06/24 09:47:13;;;;;;;4.55;2.60;;;;;;;24.09;100.00;102250.69;5233708;28;20040;-68
2023/06/24 09:49:44;;;;;;;4.35;2.38;;;;;;;24.13;100.00;102245.75;5234225;28;20026;-70
2023/06/24 09:52:16;;;;;;;3.97;2.45;;;;;;;24.16;100.00;102248.13;5234333;28;20041;-70
2023/06/24 09:54:51;;;;;;;4.68;2.35;;;;;;;24.16;100.00;102246.25;5234091;28;20029;-70
2023/06/24 09:57:30;;;;;;;3.83;2.33;;;;;;;24.35;100.00;102249.63;5234227;28;20029;-70
2023/06/24 10:00:02;;;;;;;4.50;2.30;;;;;;;24.25;100.00;102247.09;5235750;28;20026;-70
2023/06/24 10:02:34;;;;;;;3.20;1.88;;;;;;;24.26;91.06;102246.06;5233391;28;20029;-68
2023/06/24 10:05:06;;;;;;;5.88;2.28;;;;;;;24.29;99.38;102245.69;5237703;28;20377;-68
2023/06/24 10:07:39;;;;;;;3.55;2.10;;;;;;;24.41;100.00;102243.44;5226375;28;20369;-68
2023/06/24 10:10:11;;;;;;;3.58;2.08;;;;;;;24.49;100.00;102248.03;5233665;28;20479;-68
2023/06/24 10:12:43;;;;;;;3.30;2.13;;;;;;;24.53;94.90;102252.19;5228698;28;20625;-68
2023/06/24 10:15:15;;;;;;;4.38;2.10;;;;;;;24.59;96.83;102246.84;5225106;28;20022;-68
2023/06/24 10:17:46;;;;;;;3.78;2.00;;;;;;;24.72;96.76;102246.28;5231192;28;20061;-68
2023/06/24 10:20:27;;;;;;;3.22;1.90;;;;;;;24.72;97.46;102249.03;5235690;28;20036;-69
2023/06/24 10:22:59;;;;;;;4.05;2.45;;;;;;;24.67;95.91;102243.25;5227796;28;20025;-69
2023/06/24 10:25:37;;;;;;;5.32;2.90;;;;;;;24.80;100.00;102242.69;5224484;28;20490;-69
2023/06/24 10:28:08;;;;;;;4.63;2.40;;;;;;;24.97;100.00;102238.00;5226391;28;20025;-69
2023/06/24 10:30:54;;;;;;;4.72;2.47;;;;;;;25.02;100.00;102241.03;5230243;28;20095;-69
2023/06/24 10:33:25;;;;;;;4.88;2.58;;;;;;;25.06;100.00;102231.44;5231868;28;20516;-69
2023/06/24 10:35:57;;;;;;;3.20;2.28;;;;;;;25.14;98.22;102227.81;5229756;28;20116;-69
2023/06/24 10:38:28;;;;;;;3.85;2.50;;;;;;;25.10;95.56;102232.75;5228837;28;20029;-69
2023/06/24 10:41:15;;;;;;;4.00;2.53;;;;;;;25.28;100.00;102229.81;5234478;28;20037;-69
2023/06/24 10:43:46;;;;;;;5.28;2.47;;;;;;;25.04;100.00;102228.91;5231150;28;20040;-70
2023/06/24 10:46:20;;;;;;;4.10;2.50;;;;;;;25.10;97.01;102227.31;5230320;28;20586;-69
2023/06/24 10:48:51;;;;;;;5.35;2.90;;;;;;;25.14;96.31;102223.22;5230298;28;20033;-69
2023/06/24 10:51:23;;;;;;;3.78;2.53;;;;;;;25.18;99.87;102216.34;5232349;28;20030;-69
2023/06/24 10:53:54;;;;;;;3.90;2.60;;;;;;;25.22;94.95;102215.00;5233898;28;20025;-69
2023/06/24 10:56:30;;;;;;;3.55;2.50;;;;;;;25.20;100.00;102214.28;5230170;28;20092;-69
2023/06/24 10:59:02;;;;;;;4.57;3.40;;;;;;;25.20;95.97;102216.19;5230848;28;20052;-69
2023/06/24 11:01:33;;;;;;;3.92;2.97;;;;;;;25.15;100.00;102207.66;5227793;28;20033;-69
2023/06/24 11:04:05;;;;;;;5.22;2.90;;;;;;;25.19;100.00;102220.75;5232341;28;20280;-69
2023/06/24 11:06:37;;;;;;;4.75;2.60;;;;;;;25.31;100.00;102207.56;5232830;28;20084;-69
2023/06/24 11:09:08;;;;;;;4.25;2.78;;;;;;;25.32;100.00;102212.00;5234466;28;20026;-69
2023/06/24 11:11:40;;;;;;;4.35;2.67;;;;;;;25.38;97.81;102200.34;5231866;28;20156;-69
2023/06/24 11:14:11;;;;;;;3.85;2.65;;;;;;;25.54;100.00;102209.44;5235773;28;20045;-69
2023/06/24 11:16:45;;;;;;;4.57;2.85;;;;;;;25.52;94.21;102197.84;5231764;28;20418;-69
2023/06/24 11:19:16;;;;;;;;;;;;;;;25.72;100.00;102195.47;5231790;28;20068;-69
2023/06/24 11:21:48;;;;;;;6.35;2.88;;;;;;;25.61;98.65;102194.03;5231925;28;19924;-69
2023/06/24 11:24:19;;;;;;;4.97;3.58;;;;;;;25.57;94.96;102189.97;5232939;28;20116;-69
2023/06/24 11:26:51;;;;;;;4.25;2.97;;;;;;;25.60;98.73;102193.19;5232925;28;20403;-69
2023/06/24 11:29:23;;;;;;;6.28;2.88;;;;;;;25.64;97.29;102193.66;5230304;28;20030;-69
2023/06/24 11:31:54;;;;;;;4.60;2.72;;;;;;;25.74;98.59;102186.03;5230261;28;20051;-69
2023/06/24 11:34:26;;;;;;;4.80;2.92;;;;;;;25.81;100.00;102187.00;5236316;28;20021;-69
2023/06/24 11:36:57;;;;;;;6.18;3.38;;;;;;;25.90;96.61;102190.50;5235142;28;20103;-69